sensor_id;sensor_type;location;lat;lon;timestamp;P1;durP1;ratioP1;P2;durP2;ratioP2
6825;SDS011;3451;52.476;13.316;2023-08-31T00:00:49;4.30;;;3.10;;
6825;SDS011;3451;52.476;13.316;2023-08-31T00:03:17;4.20;;;3.00;;
6825;SDS011;3451;52.476;13.316;2023-08-31T00:05:45;3.40;;;3.10;;
6825;SDS011;3451;52.476;13.316;2023-08-31T00:08:11;7.27;;;3.30;;
6825;SDS011;3451;52.476;13.316;2023-08-31T00:10:37;4.57;;;3.10;;
6825;SDS011;3451;52.476;13.316;2023-08-31T00:13:05;6.80;;;3.40;;
6825;SDS011;3451;52.476;13.316;2023-08-31T00:15:32;3.97;;;2.90;;
6825;SDS011;3451;52.476;13.316;2023-08-31T00:18:01;4.40;;;3.00;;
6825;SDS011;3451;52.476;13.316;2023-08-31T00:20:30;3.10;;;2.80;;
6825;SDS011;3451;52.476;13.316;2023-08-31T00:22:56;4.00;;;2.90;;
6825;SDS011;3451;52.476;13.316;2023-08-31T00:25:23;3.13;;;2.80;;
6825;SDS011;3451;52.476;13.316;2023-08-31T00:27:49;4.67;;;3.20;;
6825;SDS011;3451;52.476;13.316;2023-08-31T00:30:18;3.97;;;3.00;;
6825;SDS011;3451;52.476;13.316;2023-08-31T00:32:44;5.30;;;2.90;;
6825;SDS011;3451;52.476;13.316;2023-08-31T00:35:13;4.10;;;3.23;;
6825;SDS011;3451;52.476;13.316;2023-08-31T00:37:40;3.90;;;3.07;;
6825;SDS011;3451;52.476;13.316;2023-08-31T00:40:06;3.23;;;2.83;;
6825;SDS011;3451;52.476;13.316;2023-08-31T00:42:34;3.87;;;2.90;;
6825;SDS011;3451;52.476;13.316;2023-08-31T00:45:01;3.73;;;2.77;;
6825;SDS011;3451;52.476;13.316;2023-08-31T00:47:28;3.20;;;2.90;;
6825;SDS011;3451;52.476;13.316;2023-08-31T00:49:54;3.20;;;2.80;;
6825;SDS011;3451;52.476;13.316;2023-08-31T00:52:20;3.97;;;2.70;;
6825;SDS011;3451;52.476;13.316;2023-08-31T00:54:47;4.73;;;2.90;;
6825;SDS011;3451;52.476;13.316;2023-08-31T00:57:15;4.23;;;2.83;;
6825;SDS011;3451;52.476;13.316;2023-08-31T00:59:42;4.33;;;2.80;;
6825;SDS011;3451;52.476;13.316;2023-08-31T01:02:11;2.97;;;2.70;;
6825;SDS011;3451;52.476;13.316;2023-08-31T01:05:24;3.30;;;2.70;;
6825;SDS011;3451;52.476;13.316;2023-08-31T01:10:08;3.20;;;2.80;;
6825;SDS011;3451;52.476;13.316;2023-08-31T01:12:44;2.57;;;2.37;;
6825;SDS011;3451;52.476;13.316;2023-08-31T01:15:10;3.03;;;2.67;;
6825;SDS011;3451;52.476;13.316;2023-08-31T01:17:41;3.40;;;2.87;;
6825;SDS011;3451;52.476;13.316;2023-08-31T01:20:10;4.80;;;3.77;;
6825;SDS011;3451;52.476;13.316;2023-08-31T01:22:38;3.80;;;3.23;;
6825;SDS011;3451;52.476;13.316;2023-08-31T01:25:08;4.63;;;3.43;;
6825;SDS011;3451;52.476;13.316;2023-08-31T01:27:35;4.80;;;2.93;;
6825;SDS011;3451;52.476;13.316;2023-08-31T01:30:06;5.07;;;3.20;;
6825;SDS011;3451;52.476;13.316;2023-08-31T01:32:32;3.87;;;3.23;;
6825;SDS011;3451;52.476;13.316;2023-08-31T01:34:59;4.40;;;3.00;;
6825;SDS011;3451;52.476;13.316;2023-08-31T01:37:29;3.37;;;3.00;;
6825;SDS011;3451;52.476;13.316;2023-08-31T01:39:58;3.53;;;2.90;;
6825;SDS011;3451;52.476;13.316;2023-08-31T01:42:27;3.83;;;2.87;;
6825;SDS011;3451;52.476;13.316;2023-08-31T01:44:54;4.07;;;2.63;;
6825;SDS011;3451;52.476;13.316;2023-08-31T01:47:22;3.43;;;2.70;;
6825;SDS011;3451;52.476;13.316;2023-08-31T01:49:48;2.73;;;2.50;;
6825;SDS011;3451;52.476;13.316;2023-08-31T01:52:14;2.60;;;2.40;;
6825;SDS011;3451;52.476;13.316;2023-08-31T01:54:41;5.00;;;2.47;;
6825;SDS011;3451;52.476;13.316;2023-08-31T01:57:07;3.03;;;2.60;;
6825;SDS011;3451;52.476;13.316;2023-08-31T01:59:34;3.30;;;2.77;;
6825;SDS011;3451;52.476;13.316;2023-08-31T02:02:01;2.97;;;2.60;;
6825;SDS011;3451;52.476;13.316;2023-08-31T02:04:27;3.37;;;2.40;;
6825;SDS011;3451;52.476;13.316;2023-08-31T02:06:54;3.33;;;2.47;;
6825;SDS011;3451;52.476;13.316;2023-08-31T02:09:20;4.80;;;2.50;;
6825;SDS011;3451;52.476;13.316;2023-08-31T02:11:47;2.70;;;2.37;;
6825;SDS011;3451;52.476;13.316;2023-08-31T02:14:13;2.37;;;2.17;;
6825;SDS011;3451;52.476;13.316;2023-08-31T02:16:40;2.73;;;2.30;;
6825;SDS011;3451;52.476;13.316;2023-08-31T02:19:06;2.90;;;2.00;;
6825;SDS011;3451;52.476;13.316;2023-08-31T02:21:32;2.40;;;1.93;;
6825;SDS011;3451;52.476;13.316;2023-08-31T02:23:59;2.90;;;2.20;;
6825;SDS011;3451;52.476;13.316;2023-08-31T02:26:25;4.07;;;1.90;;
6825;SDS011;3451;52.476;13.316;2023-08-31T02:28:51;2.77;;;1.97;;
6825;SDS011;3451;52.476;13.316;2023-08-31T02:31:18;3.37;;;1.87;;
6825;SDS011;3451;52.476;13.316;2023-08-31T02:33:46;2.53;;;2.00;;
6825;SDS011;3451;52.476;13.316;2023-08-31T02:36:12;4.30;;;1.90;;
6825;SDS011;3451;52.476;13.316;2023-08-31T02:38:38;2.40;;;1.80;;
6825;SDS011;3451;52.476;13.316;2023-08-31T02:41:05;3.43;;;2.03;;
6825;SDS011;3451;52.476;13.316;2023-08-31T02:43:31;3.23;;;2.33;;
6825;SDS011;3451;52.476;13.316;2023-08-31T02:46:00;2.00;;;1.70;;
6825;SDS011;3451;52.476;13.316;2023-08-31T02:48:27;3.90;;;1.93;;
6825;SDS011;3451;52.476;13.316;2023-08-31T02:50:57;2.67;;;2.00;;
6825;SDS011;3451;52.476;13.316;2023-08-31T02:53:31;3.70;;;2.10;;
6825;SDS011;3451;52.476;13.316;2023-08-31T02:55:57;1.90;;;1.60;;
6825;SDS011;3451;52.476;13.316;2023-08-31T02:58:24;2.43;;;2.00;;
6825;SDS011;3451;52.476;13.316;2023-08-31T03:00:51;3.03;;;1.70;;
6825;SDS011;3451;52.476;13.316;2023-08-31T03:03:17;2.67;;;2.00;;
6825;SDS011;3451;52.476;13.316;2023-08-31T03:05:44;4.70;;;1.93;;
6825;SDS011;3451;52.476;13.316;2023-08-31T03:08:10;2.97;;;1.70;;
6825;SDS011;3451;52.476;13.316;2023-08-31T03:10:37;3.40;;;1.90;;
6825;SDS011;3451;52.476;13.316;2023-08-31T03:13:04;2.43;;;1.87;;
6825;SDS011;3451;52.476;13.316;2023-08-31T03:15:33;2.20;;;1.73;;
6825;SDS011;3451;52.476;13.316;2023-08-31T03:18:00;2.50;;;2.03;;
6825;SDS011;3451;52.476;13.316;2023-08-31T03:20:27;2.60;;;2.07;;
6825;SDS011;3451;52.476;13.316;2023-08-31T03:22:53;4.27;;;2.00;;
6825;SDS011;3451;52.476;13.316;2023-08-31T03:25:19;2.30;;;1.90;;
6825;SDS011;3451;52.476;13.316;2023-08-31T03:27:46;3.33;;;1.77;;
6825;SDS011;3451;52.476;13.316;2023-08-31T03:30:12;3.20;;;2.10;;
6825;SDS011;3451;52.476;13.316;2023-08-31T03:32:38;3.60;;;2.00;;
6825;SDS011;3451;52.476;13.316;2023-08-31T03:35:05;2.30;;;1.60;;
6825;SDS011;3451;52.476;13.316;2023-08-31T03:37:31;2.53;;;2.00;;
6825;SDS011;3451;52.476;13.316;2023-08-31T03:39:58;2.57;;;2.20;;
6825;SDS011;3451;52.476;13.316;2023-08-31T03:42:24;3.53;;;2.20;;
6825;SDS011;3451;52.476;13.316;2023-08-31T03:44:50;3.07;;;2.10;;
6825;SDS011;3451;52.476;13.316;2023-08-31T03:47:16;4.67;;;2.43;;
6825;SDS011;3451;52.476;13.316;2023-08-31T03:49:43;4.53;;;2.73;;
6825;SDS011;3451;52.476;13.316;2023-08-31T03:52:09;3.30;;;2.30;;
6825;SDS011;3451;52.476;13.316;2023-08-31T03:54:36;4.10;;;2.63;;
6825;SDS011;3451;52.476;13.316;2023-08-31T03:57:02;3.10;;;2.60;;
6825;SDS011;3451;52.476;13.316;2023-08-31T03:59:29;4.67;;;2.90;;
6825;SDS011;3451;52.476;13.316;2023-08-31T04:01:55;3.67;;;3.07;;
6825;SDS011;3451;52.476;13.316;2023-08-31T04:04:21;7.00;;;3.00;;
6825;SDS011;3451;52.476;13.316;2023-08-31T04:06:48;4.23;;;2.70;;
6825;SDS011;3451;52.476;13.316;2023-08-31T04:09:14;3.20;;;2.70;;
6825;SDS011;3451;52.476;13.316;2023-08-31T04:11:40;3.90;;;2.80;;
6825;SDS011;3451;52.476;13.316;2023-08-31T04:14:07;4.20;;;2.67;;
6825;SDS011;3451;52.476;13.316;2023-08-31T04:16:33;4.23;;;3.10;;
6825;SDS011;3451;52.476;13.316;2023-08-31T04:18:59;5.23;;;2.90;;
6825;SDS011;3451;52.476;13.316;2023-08-31T04:21:25;4.43;;;3.10;;
6825;SDS011;3451;52.476;13.316;2023-08-31T04:23:52;5.33;;;3.10;;
6825;SDS011;3451;52.476;13.316;2023-08-31T04:26:18;4.50;;;3.40;;
6825;SDS011;3451;52.476;13.316;2023-08-31T04:28:46;4.00;;;3.50;;
6825;SDS011;3451;52.476;13.316;2023-08-31T04:31:13;4.90;;;3.30;;
6825;SDS011;3451;52.476;13.316;2023-08-31T04:33:39;6.37;;;3.50;;
6825;SDS011;3451;52.476;13.316;2023-08-31T04:36:06;5.33;;;3.63;;
6825;SDS011;3451;52.476;13.316;2023-08-31T04:38:33;5.77;;;3.90;;
6825;SDS011;3451;52.476;13.316;2023-08-31T04:41:00;4.07;;;3.43;;
6825;SDS011;3451;52.476;13.316;2023-08-31T04:43:26;4.53;;;3.73;;
6825;SDS011;3451;52.476;13.316;2023-08-31T04:45:53;5.27;;;3.90;;
6825;SDS011;3451;52.476;13.316;2023-08-31T04:48:20;5.00;;;3.80;;
6825;SDS011;3451;52.476;13.316;2023-08-31T04:50:47;5.97;;;3.90;;
6825;SDS011;3451;52.476;13.316;2023-08-31T04:53:13;5.27;;;3.97;;
6825;SDS011;3451;52.476;13.316;2023-08-31T04:55:40;6.63;;;4.90;;
6825;SDS011;3451;52.476;13.316;2023-08-31T04:58:06;4.70;;;3.97;;
6825;SDS011;3451;52.476;13.316;2023-08-31T05:00:32;5.47;;;4.53;;
6825;SDS011;3451;52.476;13.316;2023-08-31T05:02:59;6.13;;;4.47;;
6825;SDS011;3451;52.476;13.316;2023-08-31T05:05:26;5.47;;;4.30;;
6825;SDS011;3451;52.476;13.316;2023-08-31T05:07:52;6.33;;;4.57;;
6825;SDS011;3451;52.476;13.316;2023-08-31T05:10:18;6.50;;;4.97;;
6825;SDS011;3451;52.476;13.316;2023-08-31T05:12:44;6.93;;;4.70;;
6825;SDS011;3451;52.476;13.316;2023-08-31T05:15:11;7.53;;;5.10;;
6825;SDS011;3451;52.476;13.316;2023-08-31T05:17:38;6.10;;;4.83;;
6825;SDS011;3451;52.476;13.316;2023-08-31T05:20:04;7.93;;;5.07;;
6825;SDS011;3451;52.476;13.316;2023-08-31T05:22:31;7.50;;;4.90;;
6825;SDS011;3451;52.476;13.316;2023-08-31T05:24:57;5.93;;;5.00;;
6825;SDS011;3451;52.476;13.316;2023-08-31T05:27:23;6.70;;;5.37;;
6825;SDS011;3451;52.476;13.316;2023-08-31T05:29:50;5.80;;;4.80;;
6825;SDS011;3451;52.476;13.316;2023-08-31T05:32:16;7.07;;;5.73;;
6825;SDS011;3451;52.476;13.316;2023-08-31T05:34:43;6.07;;;4.80;;
6825;SDS011;3451;52.476;13.316;2023-08-31T05:37:09;7.60;;;5.90;;
6825;SDS011;3451;52.476;13.316;2023-08-31T05:39:35;6.30;;;5.03;;
6825;SDS011;3451;52.476;13.316;2023-08-31T05:42:02;7.73;;;5.40;;
6825;SDS011;3451;52.476;13.316;2023-08-31T05:44:29;6.40;;;5.23;;
6825;SDS011;3451;52.476;13.316;2023-08-31T05:46:55;7.17;;;5.67;;
6825;SDS011;3451;52.476;13.316;2023-08-31T05:49:22;6.77;;;5.30;;
6825;SDS011;3451;52.476;13.316;2023-08-31T05:51:49;6.47;;;5.23;;
6825;SDS011;3451;52.476;13.316;2023-08-31T05:54:15;7.70;;;5.90;;
6825;SDS011;3451;52.476;13.316;2023-08-31T05:56:41;8.23;;;5.80;;
6825;SDS011;3451;52.476;13.316;2023-08-31T05:59:08;9.30;;;5.40;;
6825;SDS011;3451;52.476;13.316;2023-08-31T06:01:34;6.73;;;5.73;;
6825;SDS011;3451;52.476;13.316;2023-08-31T06:04:01;6.60;;;5.40;;
6825;SDS011;3451;52.476;13.316;2023-08-31T06:06:27;8.47;;;5.23;;
6825;SDS011;3451;52.476;13.316;2023-08-31T06:08:53;10.00;;;5.40;;
6825;SDS011;3451;52.476;13.316;2023-08-31T06:11:20;7.77;;;5.67;;
6825;SDS011;3451;52.476;13.316;2023-08-31T06:13:47;6.50;;;5.57;;
6825;SDS011;3451;52.476;13.316;2023-08-31T06:16:13;7.27;;;5.50;;
6825;SDS011;3451;52.476;13.316;2023-08-31T06:18:40;6.87;;;5.30;;
6825;SDS011;3451;52.476;13.316;2023-08-31T06:21:06;7.23;;;5.57;;
6825;SDS011;3451;52.476;13.316;2023-08-31T06:23:32;7.10;;;5.73;;
6825;SDS011;3451;52.476;13.316;2023-08-31T06:25:59;7.77;;;5.50;;
6825;SDS011;3451;52.476;13.316;2023-08-31T06:28:25;6.20;;;5.27;;
6825;SDS011;3451;52.476;13.316;2023-08-31T06:30:51;6.87;;;4.90;;
6825;SDS011;3451;52.476;13.316;2023-08-31T06:33:18;6.80;;;5.07;;
6825;SDS011;3451;52.476;13.316;2023-08-31T06:35:47;8.10;;;5.53;;
6825;SDS011;3451;52.476;13.316;2023-08-31T06:38:18;6.73;;;5.10;;
6825;SDS011;3451;52.476;13.316;2023-08-31T06:40:45;8.03;;;5.23;;
6825;SDS011;3451;52.476;13.316;2023-08-31T06:43:12;9.43;;;5.67;;
6825;SDS011;3451;52.476;13.316;2023-08-31T06:45:39;9.23;;;5.90;;
6825;SDS011;3451;52.476;13.316;2023-08-31T06:48:07;7.97;;;5.47;;
6825;SDS011;3451;52.476;13.316;2023-08-31T06:50:33;8.67;;;5.10;;
6825;SDS011;3451;52.476;13.316;2023-08-31T06:53:00;7.00;;;5.70;;
6825;SDS011;3451;52.476;13.316;2023-08-31T06:55:26;6.70;;;5.00;;
6825;SDS011;3451;52.476;13.316;2023-08-31T06:57:52;10.23;;;5.10;;
6825;SDS011;3451;52.476;13.316;2023-08-31T07:00:21;6.80;;;5.13;;
6825;SDS011;3451;52.476;13.316;2023-08-31T07:02:47;7.57;;;5.00;;
6825;SDS011;3451;52.476;13.316;2023-08-31T07:05:13;10.17;;;5.50;;
6825;SDS011;3451;52.476;13.316;2023-08-31T07:07:40;7.27;;;5.30;;
6825;SDS011;3451;52.476;13.316;2023-08-31T07:10:06;7.20;;;5.40;;
6825;SDS011;3451;52.476;13.316;2023-08-31T07:12:33;8.10;;;4.97;;
6825;SDS011;3451;52.476;13.316;2023-08-31T07:14:59;8.73;;;5.30;;
6825;SDS011;3451;52.476;13.316;2023-08-31T07:17:26;10.13;;;5.70;;
6825;SDS011;3451;52.476;13.316;2023-08-31T07:19:52;10.20;;;5.27;;
6825;SDS011;3451;52.476;13.316;2023-08-31T07:22:18;9.30;;;5.20;;
6825;SDS011;3451;52.476;13.316;2023-08-31T07:24:45;7.30;;;5.17;;
6825;SDS011;3451;52.476;13.316;2023-08-31T07:27:11;9.07;;;4.57;;
6825;SDS011;3451;52.476;13.316;2023-08-31T07:29:37;7.57;;;4.80;;
6825;SDS011;3451;52.476;13.316;2023-08-31T07:32:04;6.67;;;4.63;;
6825;SDS011;3451;52.476;13.316;2023-08-31T07:34:30;7.30;;;4.60;;
6825;SDS011;3451;52.476;13.316;2023-08-31T07:36:58;7.17;;;4.80;;
6825;SDS011;3451;52.476;13.316;2023-08-31T07:39:25;4.40;;;3.67;;
6825;SDS011;3451;52.476;13.316;2023-08-31T07:41:52;8.53;;;4.20;;
6825;SDS011;3451;52.476;13.316;2023-08-31T07:44:20;4.77;;;3.80;;
6825;SDS011;3451;52.476;13.316;2023-08-31T07:46:47;6.73;;;3.57;;
6825;SDS011;3451;52.476;13.316;2023-08-31T07:49:13;7.03;;;3.80;;
6825;SDS011;3451;52.476;13.316;2023-08-31T07:51:40;6.33;;;4.03;;
6825;SDS011;3451;52.476;13.316;2023-08-31T07:54:06;4.97;;;3.30;;
6825;SDS011;3451;52.476;13.316;2023-08-31T07:56:32;6.00;;;3.40;;
6825;SDS011;3451;52.476;13.316;2023-08-31T07:58:59;6.30;;;3.30;;
6825;SDS011;3451;52.476;13.316;2023-08-31T08:01:25;5.43;;;3.37;;
6825;SDS011;3451;52.476;13.316;2023-08-31T08:03:52;5.90;;;3.50;;
6825;SDS011;3451;52.476;13.316;2023-08-31T08:06:18;6.83;;;4.10;;
6825;SDS011;3451;52.476;13.316;2023-08-31T08:08:44;8.10;;;3.90;;
6825;SDS011;3451;52.476;13.316;2023-08-31T08:11:11;6.70;;;3.50;;
6825;SDS011;3451;52.476;13.316;2023-08-31T08:13:37;5.20;;;3.10;;
6825;SDS011;3451;52.476;13.316;2023-08-31T08:16:03;5.67;;;2.90;;
6825;SDS011;3451;52.476;13.316;2023-08-31T08:18:30;4.17;;;2.70;;
6825;SDS011;3451;52.476;13.316;2023-08-31T08:20:57;5.27;;;3.50;;
6825;SDS011;3451;52.476;13.316;2023-08-31T08:23:23;6.73;;;2.40;;
6825;SDS011;3451;52.476;13.316;2023-08-31T08:25:49;8.33;;;2.80;;
6825;SDS011;3451;52.476;13.316;2023-08-31T08:28:16;4.67;;;2.53;;
6825;SDS011;3451;52.476;13.316;2023-08-31T08:30:42;4.07;;;2.37;;
6825;SDS011;3451;52.476;13.316;2023-08-31T08:33:08;5.10;;;2.10;;
6825;SDS011;3451;52.476;13.316;2023-08-31T08:35:36;3.63;;;2.23;;
6825;SDS011;3451;52.476;13.316;2023-08-31T08:38:03;4.17;;;2.23;;
6825;SDS011;3451;52.476;13.316;2023-08-31T08:40:30;4.90;;;1.93;;
6825;SDS011;3451;52.476;13.316;2023-08-31T08:42:56;5.73;;;2.50;;
6825;SDS011;3451;52.476;13.316;2023-08-31T08:45:25;4.40;;;2.27;;
6825;SDS011;3451;52.476;13.316;2023-08-31T08:47:54;3.93;;;2.10;;
6825;SDS011;3451;52.476;13.316;2023-08-31T08:50:21;4.83;;;2.00;;
6825;SDS011;3451;52.476;13.316;2023-08-31T08:52:47;4.20;;;1.60;;
6825;SDS011;3451;52.476;13.316;2023-08-31T08:55:14;4.70;;;1.93;;
6825;SDS011;3451;52.476;13.316;2023-08-31T08:57:41;3.30;;;1.50;;
6825;SDS011;3451;52.476;13.316;2023-08-31T09:00:07;3.30;;;1.70;;
6825;SDS011;3451;52.476;13.316;2023-08-31T09:02:33;6.53;;;1.70;;
6825;SDS011;3451;52.476;13.316;2023-08-31T09:05:00;2.93;;;1.60;;
6825;SDS011;3451;52.476;13.316;2023-08-31T09:07:29;2.77;;;1.70;;
6825;SDS011;3451;52.476;13.316;2023-08-31T09:09:55;3.53;;;1.70;;
6825;SDS011;3451;52.476;13.316;2023-08-31T09:12:22;4.23;;;1.80;;
6825;SDS011;3451;52.476;13.316;2023-08-31T09:15:23;6.57;;;2.00;;
6825;SDS011;3451;52.476;13.316;2023-08-31T09:17:42;5.60;;;1.93;;
6825;SDS011;3451;52.476;13.316;2023-08-31T09:20:11;2.67;;;1.63;;
6825;SDS011;3451;52.476;13.316;2023-08-31T09:22:41;4.50;;;1.40;;
6825;SDS011;3451;52.476;13.316;2023-08-31T09:25:08;2.37;;;1.37;;
6825;SDS011;3451;52.476;13.316;2023-08-31T09:27:36;4.47;;;1.70;;
6825;SDS011;3451;52.476;13.316;2023-08-31T09:30:05;5.70;;;2.47;;
6825;SDS011;3451;52.476;13.316;2023-08-31T09:32:32;4.80;;;1.40;;
6825;SDS011;3451;52.476;13.316;2023-08-31T09:34:58;9.13;;;1.97;;
6825;SDS011;3451;52.476;13.316;2023-08-31T09:37:31;2.93;;;1.40;;
6825;SDS011;3451;52.476;13.316;2023-08-31T09:40:01;3.57;;;1.40;;
6825;SDS011;3451;52.476;13.316;2023-08-31T09:42:37;4.47;;;1.70;;
6825;SDS011;3451;52.476;13.316;2023-08-31T09:45:06;4.97;;;1.57;;
6825;SDS011;3451;52.476;13.316;2023-08-31T09:47:33;3.43;;;1.57;;
6825;SDS011;3451;52.476;13.316;2023-08-31T09:49:59;2.10;;;1.10;;
6825;SDS011;3451;52.476;13.316;2023-08-31T09:52:26;2.17;;;1.27;;
6825;SDS011;3451;52.476;13.316;2023-08-31T09:54:53;3.20;;;1.23;;
6825;SDS011;3451;52.476;13.316;2023-08-31T09:57:19;3.23;;;1.40;;
6825;SDS011;3451;52.476;13.316;2023-08-31T10:00:01;4.73;;;1.27;;
6825;SDS011;3451;52.476;13.316;2023-08-31T10:02:28;4.00;;;1.37;;
6825;SDS011;3451;52.476;13.316;2023-08-31T10:04:55;5.97;;;1.40;;
6825;SDS011;3451;52.476;13.316;2023-08-31T10:07:22;3.53;;;1.40;;
6825;SDS011;3451;52.476;13.316;2023-08-31T10:09:49;3.50;;;1.10;;
6825;SDS011;3451;52.476;13.316;2023-08-31T10:12:16;2.53;;;1.30;;
6825;SDS011;3451;52.476;13.316;2023-08-31T10:14:43;3.97;;;1.20;;
6825;SDS011;3451;52.476;13.316;2023-08-31T10:17:12;4.07;;;1.03;;
6825;SDS011;3451;52.476;13.316;2023-08-31T10:19:39;4.70;;;1.30;;
6825;SDS011;3451;52.476;13.316;2023-08-31T10:22:05;4.20;;;1.20;;
6825;SDS011;3451;52.476;13.316;2023-08-31T10:27:18;6.47;;;1.20;;
6825;SDS011;3451;52.476;13.316;2023-08-31T10:29:44;4.60;;;1.37;;
6825;SDS011;3451;52.476;13.316;2023-08-31T10:32:10;4.83;;;1.33;;
6825;SDS011;3451;52.476;13.316;2023-08-31T10:34:42;3.40;;;1.07;;
6825;SDS011;3451;52.476;13.316;2023-08-31T10:37:19;2.77;;;1.13;;
6825;SDS011;3451;52.476;13.316;2023-08-31T10:39:47;2.73;;;1.10;;
6825;SDS011;3451;52.476;13.316;2023-08-31T10:42:13;2.53;;;1.07;;
6825;SDS011;3451;52.476;13.316;2023-08-31T10:44:41;2.67;;;1.30;;
6825;SDS011;3451;52.476;13.316;2023-08-31T10:47:08;5.03;;;1.40;;
6825;SDS011;3451;52.476;13.316;2023-08-31T10:49:34;2.63;;;1.40;;
6825;SDS011;3451;52.476;13.316;2023-08-31T10:52:17;3.53;;;1.50;;
6825;SDS011;3451;52.476;13.316;2023-08-31T10:55:07;3.03;;;1.20;;
6825;SDS011;3451;52.476;13.316;2023-08-31T10:57:34;2.57;;;1.40;;
6825;SDS011;3451;52.476;13.316;2023-08-31T11:00:01;4.03;;;1.53;;
6825;SDS011;3451;52.476;13.316;2023-08-31T11:05:16;2.90;;;1.40;;
6825;SDS011;3451;52.476;13.316;2023-08-31T11:07:45;2.20;;;1.37;;
6825;SDS011;3451;52.476;13.316;2023-08-31T11:10:14;3.33;;;1.50;;
6825;SDS011;3451;52.476;13.316;2023-08-31T11:12:41;3.67;;;1.60;;
6825;SDS011;3451;52.476;13.316;2023-08-31T11:15:10;9.43;;;1.80;;
6825;SDS011;3451;52.476;13.316;2023-08-31T11:17:36;3.13;;;1.50;;
6825;SDS011;3451;52.476;13.316;2023-08-31T11:20:05;4.13;;;1.70;;
6825;SDS011;3451;52.476;13.316;2023-08-31T11:22:31;3.50;;;1.50;;
6825;SDS011;3451;52.476;13.316;2023-08-31T11:24:59;4.63;;;1.50;;
6825;SDS011;3451;52.476;13.316;2023-08-31T11:27:25;3.83;;;1.50;;
6825;SDS011;3451;52.476;13.316;2023-08-31T11:29:52;3.30;;;1.70;;
6825;SDS011;3451;52.476;13.316;2023-08-31T11:32:18;4.93;;;1.70;;
6825;SDS011;3451;52.476;13.316;2023-08-31T11:34:44;3.10;;;1.57;;
6825;SDS011;3451;52.476;13.316;2023-08-31T11:37:14;3.70;;;1.70;;
6825;SDS011;3451;52.476;13.316;2023-08-31T11:39:49;3.27;;;1.50;;
6825;SDS011;3451;52.476;13.316;2023-08-31T11:42:16;2.50;;;1.50;;
6825;SDS011;3451;52.476;13.316;2023-08-31T11:44:42;4.60;;;1.70;;
6825;SDS011;3451;52.476;13.316;2023-08-31T11:47:09;3.23;;;1.63;;
6825;SDS011;3451;52.476;13.316;2023-08-31T11:49:35;3.33;;;1.70;;
6825;SDS011;3451;52.476;13.316;2023-08-31T11:52:01;5.30;;;1.70;;
6825;SDS011;3451;52.476;13.316;2023-08-31T11:54:28;5.20;;;2.07;;
6825;SDS011;3451;52.476;13.316;2023-08-31T11:56:55;8.43;;;2.90;;
6825;SDS011;3451;52.476;13.316;2023-08-31T11:59:22;4.53;;;2.20;;
6825;SDS011;3451;52.476;13.316;2023-08-31T12:01:49;5.83;;;2.20;;
6825;SDS011;3451;52.476;13.316;2023-08-31T12:04:17;7.43;;;3.23;;
6825;SDS011;3451;52.476;13.316;2023-08-31T12:06:46;8.70;;;3.60;;
6825;SDS011;3451;52.476;13.316;2023-08-31T12:09:13;4.13;;;2.40;;
6825;SDS011;3451;52.476;13.316;2023-08-31T12:11:39;5.30;;;2.30;;
6825;SDS011;3451;52.476;13.316;2023-08-31T12:14:22;6.23;;;2.10;;
6825;SDS011;3451;52.476;13.316;2023-08-31T12:16:49;5.03;;;2.33;;
6825;SDS011;3451;52.476;13.316;2023-08-31T12:19:16;4.97;;;2.20;;
6825;SDS011;3451;52.476;13.316;2023-08-31T12:21:43;3.50;;;2.00;;
6825;SDS011;3451;52.476;13.316;2023-08-31T12:24:10;5.53;;;1.90;;
6825;SDS011;3451;52.476;13.316;2023-08-31T12:26:36;4.67;;;2.30;;
6825;SDS011;3451;52.476;13.316;2023-08-31T12:29:03;5.00;;;1.83;;
6825;SDS011;3451;52.476;13.316;2023-08-31T12:31:33;3.20;;;1.90;;
6825;SDS011;3451;52.476;13.316;2023-08-31T12:33:59;2.47;;;1.70;;
6825;SDS011;3451;52.476;13.316;2023-08-31T12:36:26;3.67;;;2.00;;
6825;SDS011;3451;52.476;13.316;2023-08-31T12:38:53;3.20;;;2.10;;
6825;SDS011;3451;52.476;13.316;2023-08-31T12:41:19;3.17;;;1.70;;
6825;SDS011;3451;52.476;13.316;2023-08-31T12:43:49;4.83;;;2.10;;
6825;SDS011;3451;52.476;13.316;2023-08-31T12:46:16;4.17;;;2.10;;
6825;SDS011;3451;52.476;13.316;2023-08-31T12:48:43;4.17;;;2.00;;
6825;SDS011;3451;52.476;13.316;2023-08-31T12:51:09;5.23;;;1.60;;
6825;SDS011;3451;52.476;13.316;2023-08-31T12:53:38;1.70;;;1.50;;
6825;SDS011;3451;52.476;13.316;2023-08-31T12:56:06;1.70;;;1.30;;
6825;SDS011;3451;52.476;13.316;2023-08-31T12:58:32;2.27;;;1.40;;
6825;SDS011;3451;52.476;13.316;2023-08-31T13:00:58;1.57;;;1.20;;
6825;SDS011;3451;52.476;13.316;2023-08-31T13:03:26;1.97;;;1.20;;
6825;SDS011;3451;52.476;13.316;2023-08-31T13:05:52;1.30;;;1.10;;
6825;SDS011;3451;52.476;13.316;2023-08-31T13:08:19;1.50;;;1.03;;
6825;SDS011;3451;52.476;13.316;2023-08-31T13:10:52;2.80;;;1.30;;
6825;SDS011;3451;52.476;13.316;2023-08-31T13:13:20;1.83;;;1.20;;
6825;SDS011;3451;52.476;13.316;2023-08-31T13:15:47;4.17;;;1.20;;
6825;SDS011;3451;52.476;13.316;2023-08-31T13:18:14;2.13;;;1.30;;
6825;SDS011;3451;52.476;13.316;2023-08-31T13:20:48;2.20;;;1.23;;
6825;SDS011;3451;52.476;13.316;2023-08-31T13:23:14;1.40;;;0.90;;
6825;SDS011;3451;52.476;13.316;2023-08-31T13:25:41;2.97;;;1.57;;
6825;SDS011;3451;52.476;13.316;2023-08-31T13:28:07;2.03;;;1.00;;
6825;SDS011;3451;52.476;13.316;2023-08-31T13:30:33;2.43;;;1.23;;
6825;SDS011;3451;52.476;13.316;2023-08-31T13:33:00;2.07;;;1.20;;
6825;SDS011;3451;52.476;13.316;2023-08-31T13:35:27;1.50;;;1.27;;
6825;SDS011;3451;52.476;13.316;2023-08-31T13:37:53;1.63;;;1.40;;
6825;SDS011;3451;52.476;13.316;2023-08-31T13:40:19;4.80;;;1.40;;
6825;SDS011;3451;52.476;13.316;2023-08-31T13:43:04;1.40;;;1.10;;
6825;SDS011;3451;52.476;13.316;2023-08-31T13:45:31;2.03;;;1.20;;
6825;SDS011;3451;52.476;13.316;2023-08-31T13:47:58;2.43;;;1.40;;
6825;SDS011;3451;52.476;13.316;2023-08-31T13:50:27;2.00;;;1.10;;
6825;SDS011;3451;52.476;13.316;2023-08-31T13:52:53;2.83;;;1.20;;
6825;SDS011;3451;52.476;13.316;2023-08-31T13:55:19;1.50;;;1.20;;
6825;SDS011;3451;52.476;13.316;2023-08-31T13:57:46;2.83;;;1.10;;
6825;SDS011;3451;52.476;13.316;2023-08-31T14:00:12;1.77;;;1.30;;
6825;SDS011;3451;52.476;13.316;2023-08-31T14:02:39;3.30;;;1.30;;
6825;SDS011;3451;52.476;13.316;2023-08-31T14:05:05;4.27;;;1.30;;
6825;SDS011;3451;52.476;13.316;2023-08-31T14:07:36;1.83;;;1.23;;
6825;SDS011;3451;52.476;13.316;2023-08-31T14:10:03;2.70;;;1.17;;
6825;SDS011;3451;52.476;13.316;2023-08-31T14:12:33;3.07;;;1.40;;
6825;SDS011;3451;52.476;13.316;2023-08-31T14:14:59;2.30;;;1.30;;
6825;SDS011;3451;52.476;13.316;2023-08-31T14:17:27;3.53;;;1.30;;
6825;SDS011;3451;52.476;13.316;2023-08-31T14:19:54;1.60;;;1.10;;
6825;SDS011;3451;52.476;13.316;2023-08-31T14:22:22;0.97;;;0.87;;
6825;SDS011;3451;52.476;13.316;2023-08-31T14:24:49;1.60;;;1.00;;
6825;SDS011;3451;52.476;13.316;2023-08-31T14:27:15;4.30;;;1.10;;
6825;SDS011;3451;52.476;13.316;2023-08-31T14:29:42;2.00;;;1.00;;
6825;SDS011;3451;52.476;13.316;2023-08-31T14:32:08;5.33;;;0.70;;
6825;SDS011;3451;52.476;13.316;2023-08-31T14:34:35;1.07;;;0.70;;
6825;SDS011;3451;52.476;13.316;2023-08-31T14:37:01;1.60;;;0.70;;
6825;SDS011;3451;52.476;13.316;2023-08-31T14:39:28;1.23;;;0.60;;
6825;SDS011;3451;52.476;13.316;2023-08-31T14:41:57;0.80;;;0.60;;
6825;SDS011;3451;52.476;13.316;2023-08-31T14:44:24;0.80;;;0.70;;
6825;SDS011;3451;52.476;13.316;2023-08-31T14:46:51;3.00;;;1.53;;
6825;SDS011;3451;52.476;13.316;2023-08-31T14:49:17;5.90;;;4.17;;
6825;SDS011;3451;52.476;13.316;2023-08-31T14:51:44;12.33;;;8.17;;
6825;SDS011;3451;52.476;13.316;2023-08-31T14:54:11;3.13;;;1.50;;
6825;SDS011;3451;52.476;13.316;2023-08-31T14:56:37;4.10;;;2.23;;
6825;SDS011;3451;52.476;13.316;2023-08-31T14:59:04;5.13;;;2.27;;
6825;SDS011;3451;52.476;13.316;2023-08-31T15:01:30;2.77;;;1.20;;
6825;SDS011;3451;52.476;13.316;2023-08-31T15:03:56;2.23;;;1.00;;
6825;SDS011;3451;52.476;13.316;2023-08-31T15:06:23;4.37;;;2.30;;
6825;SDS011;3451;52.476;13.316;2023-08-31T15:08:49;3.00;;;1.30;;